This is the latest recevied weather packets stored in our database for station/object IW1CBG-3. If no packets are shown the sender has not sent any weather packets the latest 10 day(s).
| Time | Temp. | Humidity | Pressure | Rain* | Wind** | Luminosity | Snow |
|---|---|---|---|---|---|---|---|
| 1777545038 | 11.11° C | 83% | 1034.8 hPa | 0 mm | - | - | - |
| 1777544438 | 11.11° C | 83% | 1034.7 hPa | 0 mm | - | - | - |
| 1777543838 | 11.67° C | 83% | 1034.5 hPa | 0 mm | - | - | - |
| 1777543239 | 11.67° C | 82% | 1034.4 hPa | 0 mm | - | - | - |
| 1777542639 | 12.78° C | 79% | 1034.1 hPa | 0 mm | - | - | - |
| 1777542039 | 12.78° C | 78% | 1033.7 hPa | 0 mm | - | - | - |
| 1777541439 | 12.22° C | 78% | 1033.9 hPa | 0 mm | - | - | - |
| 1777540839 | 12.22° C | 80% | 1034.2 hPa | 0 mm | - | - | - |
| 1777540239 | 12.22° C | 79% | 1033.9 hPa | 0 mm | - | - | - |
| 1777539638 | 12.22° C | 79% | 1033.7 hPa | 0 mm | - | - | - |
| 1777539038 | 12.78° C | 79% | 1033.6 hPa | 0 mm | - | - | - |
| 1777538439 | 13.33° C | 78% | 1033.1 hPa | 0 mm | - | - | - |
| 1777537839 | 12.78° C | 80% | 1033.1 hPa | 0 mm | - | - | - |
| 1777537238 | 12.22° C | 81% | 1033.4 hPa | 0 mm | - | - | - |
| 1777536638 | 12.22° C | 83% | 1033.1 hPa | 0 mm | - | - | - |
| 1777536038 | 12.22° C | 83% | 1032.9 hPa | 0 mm | - | - | - |
| 1777535439 | 11.67° C | 83% | 1033.1 hPa | 0 mm | - | - | - |
| 1777534838 | 11.67° C | 84% | 1032.9 hPa | 0 mm | - | - | - |
| 1777534239 | 11.67° C | 84% | 1033.1 hPa | 0 mm | - | - | - |
| 1777533638 | 11.67° C | 85% | 1033.1 hPa | 0 mm | - | - | - |
| 1777533038 | 11.67° C | 85% | 1033 hPa | 0 mm | - | - | - |
| 1777532438 | 11.67° C | 84% | 1032.8 hPa | 0 mm | - | - | - |
| 1777531839 | 11.67° C | 83% | 1032.6 hPa | 0 mm | - | - | - |
| 1777531239 | 12.22° C | 81% | 1032.1 hPa | 0 mm | - | - | - |
| 1777530639 | 12.22° C | 81% | 1032.2 hPa | 0 mm | - | - | - |
* Rain latest hour (hover to see other rain measurements)
** Current wind speed in m/s (hover to see current wind gust speed)